sensor_id;sensor_type;location;lat;lon;timestamp;P1;durP1;ratioP1;P2;durP2;ratioP2
65315;SDS011;51920;53.952;10.292;2023-07-29T00:00:11;5.50;;;3.93;;
65315;SDS011;51920;53.952;10.292;2023-07-29T00:02:39;5.28;;;3.55;;
65315;SDS011;51920;53.952;10.292;2023-07-29T00:05:06;5.22;;;4.18;;
65315;SDS011;51920;53.952;10.292;2023-07-29T00:07:33;5.15;;;3.60;;
65315;SDS011;51920;53.952;10.292;2023-07-29T00:10:01;5.18;;;4.20;;
65315;SDS011;51920;53.952;10.292;2023-07-29T00:12:29;5.77;;;4.00;;
65315;SDS011;51920;53.952;10.292;2023-07-29T00:14:56;6.45;;;4.28;;
65315;SDS011;51920;53.952;10.292;2023-07-29T00:17:22;5.32;;;3.97;;
65315;SDS011;51920;53.952;10.292;2023-07-29T00:19:49;4.97;;;3.70;;
65315;SDS011;51920;53.952;10.292;2023-07-29T00:22:15;5.57;;;4.30;;
65315;SDS011;51920;53.952;10.292;2023-07-29T00:24:42;5.20;;;3.70;;
65315;SDS011;51920;53.952;10.292;2023-07-29T00:27:09;4.63;;;3.55;;
65315;SDS011;51920;53.952;10.292;2023-07-29T00:29:36;6.60;;;4.13;;
65315;SDS011;51920;53.952;10.292;2023-07-29T00:32:02;5.35;;;3.90;;
65315;SDS011;51920;53.952;10.292;2023-07-29T00:34:29;6.93;;;4.25;;
65315;SDS011;51920;53.952;10.292;2023-07-29T00:36:57;6.13;;;4.00;;
65315;SDS011;51920;53.952;10.292;2023-07-29T00:39:24;5.07;;;3.88;;
65315;SDS011;51920;53.952;10.292;2023-07-29T00:41:50;5.50;;;4.32;;
65315;SDS011;51920;53.952;10.292;2023-07-29T00:44:17;5.32;;;4.00;;
65315;SDS011;51920;53.952;10.292;2023-07-29T00:46:44;5.38;;;3.90;;
65315;SDS011;51920;53.952;10.292;2023-07-29T00:49:12;5.30;;;3.90;;
65315;SDS011;51920;53.952;10.292;2023-07-29T00:51:40;6.95;;;4.32;;
65315;SDS011;51920;53.952;10.292;2023-07-29T00:54:07;6.40;;;4.50;;
65315;SDS011;51920;53.952;10.292;2023-07-29T00:56:34;6.35;;;4.40;;
65315;SDS011;51920;53.952;10.292;2023-07-29T00:59:01;6.45;;;4.35;;
65315;SDS011;51920;53.952;10.292;2023-07-29T01:01:28;5.70;;;4.30;;
65315;SDS011;51920;53.952;10.292;2023-07-29T01:03:55;5.85;;;4.30;;
65315;SDS011;51920;53.952;10.292;2023-07-29T01:11:33;5.90;;;4.38;;
65315;SDS011;51920;53.952;10.292;2023-07-29T01:14:29;6.10;;;3.90;;
65315;SDS011;51920;53.952;10.292;2023-07-29T01:17:05;5.72;;;4.15;;
65315;SDS011;51920;53.952;10.292;2023-07-29T01:22:30;6.72;;;4.60;;
65315;SDS011;51920;53.952;10.292;2023-07-29T01:25:01;5.63;;;3.90;;
65315;SDS011;51920;53.952;10.292;2023-07-29T01:27:28;6.47;;;4.20;;
65315;SDS011;51920;53.952;10.292;2023-07-29T01:29:56;7.07;;;4.85;;
65315;SDS011;51920;53.952;10.292;2023-07-29T01:37:36;6.30;;;4.60;;
65315;SDS011;51920;53.952;10.292;2023-07-29T01:40:05;6.47;;;4.43;;
65315;SDS011;51920;53.952;10.292;2023-07-29T01:42:34;5.47;;;4.15;;
65315;SDS011;51920;53.952;10.292;2023-07-29T01:45:01;6.63;;;4.72;;
65315;SDS011;51920;53.952;10.292;2023-07-29T01:47:28;6.82;;;4.85;;
65315;SDS011;51920;53.952;10.292;2023-07-29T01:49:55;7.95;;;4.80;;
65315;SDS011;51920;53.952;10.292;2023-07-29T01:52:21;6.03;;;4.37;;
65315;SDS011;51920;53.952;10.292;2023-07-29T01:54:49;7.50;;;4.78;;
65315;SDS011;51920;53.952;10.292;2023-07-29T01:57:16;6.22;;;4.50;;
65315;SDS011;51920;53.952;10.292;2023-07-29T01:59:42;6.93;;;4.68;;
65315;SDS011;51920;53.952;10.292;2023-07-29T02:02:09;7.05;;;4.95;;
65315;SDS011;51920;53.952;10.292;2023-07-29T02:04:36;7.80;;;5.10;;
65315;SDS011;51920;53.952;10.292;2023-07-29T02:07:03;7.90;;;5.15;;
65315;SDS011;51920;53.952;10.292;2023-07-29T02:09:30;8.45;;;5.50;;
65315;SDS011;51920;53.952;10.292;2023-07-29T02:11:58;8.45;;;5.53;;
65315;SDS011;51920;53.952;10.292;2023-07-29T02:14:24;8.80;;;5.20;;
65315;SDS011;51920;53.952;10.292;2023-07-29T02:16:51;8.67;;;5.30;;
65315;SDS011;51920;53.952;10.292;2023-07-29T02:19:18;8.45;;;4.80;;
65315;SDS011;51920;53.952;10.292;2023-07-29T02:21:45;8.07;;;4.95;;
65315;SDS011;51920;53.952;10.292;2023-07-29T02:24:12;8.48;;;5.15;;
65315;SDS011;51920;53.952;10.292;2023-07-29T02:26:39;7.55;;;5.00;;
65315;SDS011;51920;53.952;10.292;2023-07-29T02:29:05;6.47;;;4.57;;
65315;SDS011;51920;53.952;10.292;2023-07-29T02:31:32;7.13;;;5.10;;
65315;SDS011;51920;53.952;10.292;2023-07-29T02:34:01;8.93;;;5.35;;
65315;SDS011;51920;53.952;10.292;2023-07-29T02:36:28;8.75;;;5.20;;
65315;SDS011;51920;53.952;10.292;2023-07-29T02:38:55;8.32;;;5.72;;
65315;SDS011;51920;53.952;10.292;2023-07-29T02:41:23;9.07;;;5.50;;
65315;SDS011;51920;53.952;10.292;2023-07-29T02:43:49;8.82;;;5.82;;
65315;SDS011;51920;53.952;10.292;2023-07-29T02:46:17;9.70;;;5.70;;
65315;SDS011;51920;53.952;10.292;2023-07-29T02:48:44;9.57;;;5.40;;
65315;SDS011;51920;53.952;10.292;2023-07-29T02:51:11;10.60;;;6.03;;
65315;SDS011;51920;53.952;10.292;2023-07-29T02:53:38;8.73;;;5.57;;
65315;SDS011;51920;53.952;10.292;2023-07-29T02:56:04;11.65;;;6.25;;
65315;SDS011;51920;53.952;10.292;2023-07-29T02:58:33;11.25;;;6.30;;
65315;SDS011;51920;53.952;10.292;2023-07-29T03:01:05;11.77;;;6.88;;
65315;SDS011;51920;53.952;10.292;2023-07-29T03:03:33;11.05;;;6.65;;
65315;SDS011;51920;53.952;10.292;2023-07-29T03:06:04;9.60;;;5.90;;
65315;SDS011;51920;53.952;10.292;2023-07-29T03:08:32;12.57;;;6.57;;
65315;SDS011;51920;53.952;10.292;2023-07-29T03:11:04;11.82;;;6.80;;
65315;SDS011;51920;53.952;10.292;2023-07-29T03:13:32;11.95;;;6.45;;
65315;SDS011;51920;53.952;10.292;2023-07-29T03:16:09;11.68;;;6.72;;
65315;SDS011;51920;53.952;10.292;2023-07-29T03:18:38;11.00;;;6.10;;
65315;SDS011;51920;53.952;10.292;2023-07-29T03:21:05;12.35;;;6.72;;
65315;SDS011;51920;53.952;10.292;2023-07-29T03:23:32;11.35;;;6.70;;
65315;SDS011;51920;53.952;10.292;2023-07-29T03:25:59;11.25;;;7.20;;
65315;SDS011;51920;53.952;10.292;2023-07-29T03:28:28;11.38;;;6.90;;
65315;SDS011;51920;53.952;10.292;2023-07-29T03:30:56;12.07;;;7.53;;
65315;SDS011;51920;53.952;10.292;2023-07-29T03:33:24;10.75;;;6.75;;
65315;SDS011;51920;53.952;10.292;2023-07-29T03:35:52;13.77;;;7.68;;
65315;SDS011;51920;53.952;10.292;2023-07-29T03:38:20;12.50;;;7.63;;
65315;SDS011;51920;53.952;10.292;2023-07-29T03:40:47;10.98;;;7.25;;
65315;SDS011;51920;53.952;10.292;2023-07-29T03:43:13;14.70;;;7.27;;
65315;SDS011;51920;53.952;10.292;2023-07-29T03:45:41;12.38;;;7.40;;
65315;SDS011;51920;53.952;10.292;2023-07-29T03:48:08;11.80;;;7.28;;
65315;SDS011;51920;53.952;10.292;2023-07-29T03:50:35;11.70;;;6.80;;
65315;SDS011;51920;53.952;10.292;2023-07-29T03:53:03;12.23;;;7.53;;
65315;SDS011;51920;53.952;10.292;2023-07-29T03:55:31;10.93;;;6.93;;
65315;SDS011;51920;53.952;10.292;2023-07-29T03:57:59;11.15;;;7.20;;
65315;SDS011;51920;53.952;10.292;2023-07-29T04:00:27;12.75;;;7.55;;
65315;SDS011;51920;53.952;10.292;2023-07-29T04:02:54;9.27;;;6.18;;
65315;SDS011;51920;53.952;10.292;2023-07-29T04:05:21;10.52;;;6.70;;
65315;SDS011;51920;53.952;10.292;2023-07-29T04:07:48;10.73;;;7.07;;
65315;SDS011;51920;53.952;10.292;2023-07-29T04:10:15;10.80;;;6.72;;
65315;SDS011;51920;53.952;10.292;2023-07-29T04:12:42;10.63;;;6.90;;
65315;SDS011;51920;53.952;10.292;2023-07-29T04:15:09;10.55;;;6.75;;
65315;SDS011;51920;53.952;10.292;2023-07-29T04:17:36;10.85;;;7.18;;
65315;SDS011;51920;53.952;10.292;2023-07-29T04:20:04;9.63;;;6.50;;
65315;SDS011;51920;53.952;10.292;2023-07-29T04:22:33;9.07;;;6.28;;
65315;SDS011;51920;53.952;10.292;2023-07-29T04:25:00;10.55;;;6.50;;
65315;SDS011;51920;53.952;10.292;2023-07-29T04:27:27;10.27;;;7.15;;
65315;SDS011;51920;53.952;10.292;2023-07-29T04:29:53;11.13;;;7.05;;
65315;SDS011;51920;53.952;10.292;2023-07-29T04:32:20;11.40;;;7.47;;
65315;SDS011;51920;53.952;10.292;2023-07-29T04:34:47;10.93;;;6.97;;
65315;SDS011;51920;53.952;10.292;2023-07-29T04:37:14;12.00;;;7.50;;
65315;SDS011;51920;53.952;10.292;2023-07-29T04:39:41;10.27;;;7.03;;
65315;SDS011;51920;53.952;10.292;2023-07-29T04:42:07;11.55;;;7.43;;
65315;SDS011;51920;53.952;10.292;2023-07-29T04:44:34;13.23;;;8.00;;
65315;SDS011;51920;53.952;10.292;2023-07-29T04:47:01;11.40;;;8.13;;
65315;SDS011;51920;53.952;10.292;2023-07-29T04:49:28;11.15;;;7.53;;
65315;SDS011;51920;53.952;10.292;2023-07-29T04:51:55;12.43;;;7.93;;
65315;SDS011;51920;53.952;10.292;2023-07-29T04:54:22;12.50;;;8.05;;
65315;SDS011;51920;53.952;10.292;2023-07-29T04:56:49;13.73;;;8.73;;
65315;SDS011;51920;53.952;10.292;2023-07-29T04:59:16;13.75;;;8.82;;
65315;SDS011;51920;53.952;10.292;2023-07-29T05:01:43;13.70;;;8.82;;
65315;SDS011;51920;53.952;10.292;2023-07-29T05:04:10;14.70;;;9.30;;
65315;SDS011;51920;53.952;10.292;2023-07-29T05:06:37;15.65;;;9.52;;
65315;SDS011;51920;53.952;10.292;2023-07-29T05:09:25;15.23;;;9.40;;
65315;SDS011;51920;53.952;10.292;2023-07-29T05:11:53;14.43;;;9.50;;
65315;SDS011;51920;53.952;10.292;2023-07-29T05:14:20;16.95;;;10.98;;
65315;SDS011;51920;53.952;10.292;2023-07-29T05:16:47;17.30;;;10.35;;
65315;SDS011;51920;53.952;10.292;2023-07-29T05:19:14;19.33;;;11.70;;
65315;SDS011;51920;53.952;10.292;2023-07-29T05:21:41;19.17;;;11.60;;
65315;SDS011;51920;53.952;10.292;2023-07-29T05:24:08;22.52;;;12.30;;
65315;SDS011;51920;53.952;10.292;2023-07-29T05:26:35;22.15;;;13.13;;
65315;SDS011;51920;53.952;10.292;2023-07-29T05:29:01;22.48;;;12.52;;
65315;SDS011;51920;53.952;10.292;2023-07-29T05:31:30;24.08;;;13.00;;
65315;SDS011;51920;53.952;10.292;2023-07-29T05:33:58;26.17;;;14.33;;
65315;SDS011;51920;53.952;10.292;2023-07-29T05:36:26;27.58;;;14.50;;
65315;SDS011;51920;53.952;10.292;2023-07-29T05:38:53;25.98;;;14.38;;
65315;SDS011;51920;53.952;10.292;2023-07-29T05:41:20;28.58;;;15.27;;
65315;SDS011;51920;53.952;10.292;2023-07-29T05:43:47;28.48;;;14.88;;
65315;SDS011;51920;53.952;10.292;2023-07-29T05:46:14;30.27;;;15.43;;
65315;SDS011;51920;53.952;10.292;2023-07-29T05:48:41;28.73;;;15.80;;
65315;SDS011;51920;53.952;10.292;2023-07-29T05:51:07;29.27;;;15.75;;
65315;SDS011;51920;53.952;10.292;2023-07-29T05:53:34;31.17;;;16.20;;
65315;SDS011;51920;53.952;10.292;2023-07-29T05:56:01;28.30;;;15.90;;
65315;SDS011;51920;53.952;10.292;2023-07-29T05:58:28;33.57;;;17.70;;
65315;SDS011;51920;53.952;10.292;2023-07-29T06:00:54;29.77;;;16.25;;
65315;SDS011;51920;53.952;10.292;2023-07-29T06:03:21;29.13;;;15.93;;
65315;SDS011;51920;53.952;10.292;2023-07-29T06:05:50;33.55;;;18.00;;
65315;SDS011;51920;53.952;10.292;2023-07-29T06:08:17;32.67;;;17.70;;
65315;SDS011;51920;53.952;10.292;2023-07-29T06:10:44;31.83;;;17.23;;
65315;SDS011;51920;53.952;10.292;2023-07-29T06:13:10;27.48;;;15.98;;
65315;SDS011;51920;53.952;10.292;2023-07-29T06:15:37;33.40;;;17.48;;
65315;SDS011;51920;53.952;10.292;2023-07-29T06:18:04;28.52;;;16.02;;
65315;SDS011;51920;53.952;10.292;2023-07-29T06:20:30;30.10;;;16.63;;
65315;SDS011;51920;53.952;10.292;2023-07-29T06:22:57;29.43;;;16.87;;
65315;SDS011;51920;53.952;10.292;2023-07-29T06:25:24;29.52;;;16.58;;
65315;SDS011;51920;53.952;10.292;2023-07-29T06:27:50;26.60;;;15.30;;
65315;SDS011;51920;53.952;10.292;2023-07-29T06:30:17;25.88;;;15.50;;
65315;SDS011;51920;53.952;10.292;2023-07-29T06:32:44;24.33;;;14.18;;
65315;SDS011;51920;53.952;10.292;2023-07-29T06:35:10;24.07;;;15.07;;
65315;SDS011;51920;53.952;10.292;2023-07-29T06:37:37;23.35;;;14.57;;
65315;SDS011;51920;53.952;10.292;2023-07-29T06:40:04;25.10;;;14.73;;
65315;SDS011;51920;53.952;10.292;2023-07-29T06:42:31;24.02;;;14.68;;
65315;SDS011;51920;53.952;10.292;2023-07-29T06:44:58;23.67;;;14.25;;
65315;SDS011;51920;53.952;10.292;2023-07-29T06:47:25;21.83;;;13.90;;
65315;SDS011;51920;53.952;10.292;2023-07-29T06:49:51;22.85;;;13.90;;
65315;SDS011;51920;53.952;10.292;2023-07-29T06:52:20;23.05;;;14.10;;
65315;SDS011;51920;53.952;10.292;2023-07-29T06:54:46;21.95;;;13.50;;
65315;SDS011;51920;53.952;10.292;2023-07-29T06:57:13;22.05;;;13.82;;
65315;SDS011;51920;53.952;10.292;2023-07-29T06:59:40;21.97;;;13.20;;
65315;SDS011;51920;53.952;10.292;2023-07-29T07:02:06;20.88;;;13.88;;
65315;SDS011;51920;53.952;10.292;2023-07-29T07:04:33;22.05;;;13.68;;
65315;SDS011;51920;53.952;10.292;2023-07-29T07:07:00;19.52;;;12.02;;
65315;SDS011;51920;53.952;10.292;2023-07-29T07:09:27;20.80;;;13.60;;
65315;SDS011;51920;53.952;10.292;2023-07-29T07:11:53;18.77;;;11.97;;
65315;SDS011;51920;53.952;10.292;2023-07-29T07:14:20;19.10;;;12.55;;
65315;SDS011;51920;53.952;10.292;2023-07-29T07:16:47;19.13;;;12.00;;
65315;SDS011;51920;53.952;10.292;2023-07-29T07:19:13;18.02;;;12.05;;
65315;SDS011;51920;53.952;10.292;2023-07-29T07:21:40;18.55;;;12.20;;
65315;SDS011;51920;53.952;10.292;2023-07-29T07:24:06;17.57;;;11.70;;
65315;SDS011;51920;53.952;10.292;2023-07-29T07:26:33;17.95;;;11.50;;
65315;SDS011;51920;53.952;10.292;2023-07-29T07:29:00;16.17;;;11.20;;
65315;SDS011;51920;53.952;10.292;2023-07-29T07:31:27;16.65;;;10.82;;
65315;SDS011;51920;53.952;10.292;2023-07-29T07:33:53;14.93;;;10.63;;
65315;SDS011;51920;53.952;10.292;2023-07-29T07:36:20;13.67;;;9.80;;
65315;SDS011;51920;53.952;10.292;2023-07-29T07:38:47;15.60;;;10.77;;
65315;SDS011;51920;53.952;10.292;2023-07-29T07:41:13;14.55;;;10.30;;
65315;SDS011;51920;53.952;10.292;2023-07-29T07:43:40;14.10;;;9.90;;
65315;SDS011;51920;53.952;10.292;2023-07-29T07:46:07;14.88;;;10.48;;
65315;SDS011;51920;53.952;10.292;2023-07-29T07:48:33;13.33;;;8.97;;
65315;SDS011;51920;53.952;10.292;2023-07-29T07:51:10;15.85;;;9.63;;
65315;SDS011;51920;53.952;10.292;2023-07-29T07:53:39;13.07;;;9.57;;
65315;SDS011;51920;53.952;10.292;2023-07-29T07:56:11;13.32;;;9.35;;
65315;SDS011;51920;53.952;10.292;2023-07-29T07:58:41;14.82;;;9.38;;
65315;SDS011;51920;53.952;10.292;2023-07-29T08:01:16;13.47;;;9.30;;
65315;SDS011;51920;53.952;10.292;2023-07-29T08:03:54;13.20;;;9.18;;
65315;SDS011;51920;53.952;10.292;2023-07-29T08:06:29;13.55;;;9.32;;
65315;SDS011;51920;53.952;10.292;2023-07-29T08:09:07;14.90;;;9.95;;
65315;SDS011;51920;53.952;10.292;2023-07-29T08:11:34;11.90;;;8.55;;
65315;SDS011;51920;53.952;10.292;2023-07-29T08:14:04;13.33;;;8.97;;
65315;SDS011;51920;53.952;10.292;2023-07-29T08:16:32;14.63;;;9.38;;
65315;SDS011;51920;53.952;10.292;2023-07-29T08:18:59;14.10;;;9.80;;
65315;SDS011;51920;53.952;10.292;2023-07-29T08:21:26;14.13;;;9.48;;
65315;SDS011;51920;53.952;10.292;2023-07-29T08:23:53;16.83;;;9.52;;
65315;SDS011;51920;53.952;10.292;2023-07-29T08:26:20;12.00;;;8.37;;
65315;SDS011;51920;53.952;10.292;2023-07-29T08:28:48;13.07;;;9.10;;
65315;SDS011;51920;53.952;10.292;2023-07-29T08:31:17;13.80;;;9.20;;
65315;SDS011;51920;53.952;10.292;2023-07-29T08:33:44;14.45;;;9.00;;
65315;SDS011;51920;53.952;10.292;2023-07-29T08:36:11;12.30;;;9.15;;
65315;SDS011;51920;53.952;10.292;2023-07-29T08:38:37;12.77;;;8.70;;
65315;SDS011;51920;53.952;10.292;2023-07-29T08:41:11;12.25;;;8.40;;
65315;SDS011;51920;53.952;10.292;2023-07-29T08:43:43;13.10;;;8.60;;
65315;SDS011;51920;53.952;10.292;2023-07-29T08:46:15;12.52;;;8.18;;
65315;SDS011;51920;53.952;10.292;2023-07-29T08:48:43;12.13;;;7.75;;
65315;SDS011;51920;53.952;10.292;2023-07-29T08:51:13;12.83;;;7.10;;
65315;SDS011;51920;53.952;10.292;2023-07-29T08:53:43;11.48;;;8.00;;
65315;SDS011;51920;53.952;10.292;2023-07-29T08:56:10;11.70;;;8.00;;
65315;SDS011;51920;53.952;10.292;2023-07-29T08:58:37;11.88;;;8.45;;
65315;SDS011;51920;53.952;10.292;2023-07-29T09:01:12;11.85;;;8.68;;
65315;SDS011;51920;53.952;10.292;2023-07-29T09:03:38;12.80;;;9.20;;
65315;SDS011;51920;53.952;10.292;2023-07-29T09:06:08;13.15;;;8.40;;
65315;SDS011;51920;53.952;10.292;2023-07-29T09:08:45;13.50;;;9.98;;
65315;SDS011;51920;53.952;10.292;2023-07-29T09:11:14;14.77;;;10.40;;
65315;SDS011;51920;53.952;10.292;2023-07-29T09:13:45;13.13;;;9.90;;
65315;SDS011;51920;53.952;10.292;2023-07-29T09:16:12;14.30;;;10.30;;
65315;SDS011;51920;53.952;10.292;2023-07-29T09:18:40;14.88;;;10.52;;
65315;SDS011;51920;53.952;10.292;2023-07-29T09:21:07;14.98;;;11.68;;
65315;SDS011;51920;53.952;10.292;2023-07-29T09:23:40;13.95;;;11.15;;
65315;SDS011;51920;53.952;10.292;2023-07-29T09:26:11;13.60;;;11.10;;
65315;SDS011;51920;53.952;10.292;2023-07-29T09:28:44;13.70;;;10.60;;
65315;SDS011;51920;53.952;10.292;2023-07-29T09:31:23;14.52;;;10.63;;
65315;SDS011;51920;53.952;10.292;2023-07-29T09:34:01;12.43;;;9.35;;
65315;SDS011;51920;53.952;10.292;2023-07-29T09:36:41;11.82;;;9.88;;
65315;SDS011;51920;53.952;10.292;2023-07-29T09:39:12;10.93;;;8.88;;
65315;SDS011;51920;53.952;10.292;2023-07-29T09:41:41;13.27;;;9.07;;
65315;SDS011;51920;53.952;10.292;2023-07-29T09:44:15;12.13;;;9.40;;
65315;SDS011;51920;53.952;10.292;2023-07-29T09:46:41;15.27;;;10.05;;
65315;SDS011;51920;53.952;10.292;2023-07-29T09:49:12;14.50;;;10.13;;
65315;SDS011;51920;53.952;10.292;2023-07-29T09:51:38;15.25;;;11.70;;
65315;SDS011;51920;53.952;10.292;2023-07-29T09:54:06;13.33;;;10.60;;
65315;SDS011;51920;53.952;10.292;2023-07-29T09:56:33;14.07;;;11.52;;
65315;SDS011;51920;53.952;10.292;2023-07-29T09:59:00;15.68;;;11.30;;
65315;SDS011;51920;53.952;10.292;2023-07-29T10:01:28;14.15;;;10.48;;
65315;SDS011;51920;53.952;10.292;2023-07-29T10:03:56;14.27;;;10.75;;
65315;SDS011;51920;53.952;10.292;2023-07-29T10:06:26;15.63;;;10.10;;
65315;SDS011;51920;53.952;10.292;2023-07-29T10:08:53;11.95;;;9.98;;
65315;SDS011;51920;53.952;10.292;2023-07-29T10:11:21;13.00;;;10.23;;
65315;SDS011;51920;53.952;10.292;2023-07-29T10:13:48;11.90;;;9.43;;
65315;SDS011;51920;53.952;10.292;2023-07-29T10:16:25;12.13;;;9.05;;
65315;SDS011;51920;53.952;10.292;2023-07-29T10:18:52;12.70;;;9.60;;
65315;SDS011;51920;53.952;10.292;2023-07-29T10:21:21;13.85;;;10.00;;
65315;SDS011;51920;53.952;10.292;2023-07-29T10:24:02;11.23;;;9.35;;
65315;SDS011;51920;53.952;10.292;2023-07-29T10:26:42;11.43;;;8.75;;
65315;SDS011;51920;53.952;10.292;2023-07-29T10:29:21;9.95;;;8.18;;
65315;SDS011;51920;53.952;10.292;2023-07-29T10:31:52;9.47;;;8.10;;
65315;SDS011;51920;53.952;10.292;2023-07-29T10:34:20;10.95;;;7.85;;
65315;SDS011;51920;53.952;10.292;2023-07-29T10:36:49;9.30;;;7.72;;
65315;SDS011;51920;53.952;10.292;2023-07-29T10:39:16;11.68;;;7.70;;
65315;SDS011;51920;53.952;10.292;2023-07-29T10:44:57;7.63;;;6.70;;
65315;SDS011;51920;53.952;10.292;2023-07-29T10:47:20;7.53;;;6.60;;
65315;SDS011;51920;53.952;10.292;2023-07-29T10:49:52;6.75;;;5.80;;
65315;SDS011;51920;53.952;10.292;2023-07-29T10:55:03;6.47;;;4.70;;
65315;SDS011;51920;53.952;10.292;2023-07-29T10:57:31;4.97;;;4.40;;
65315;SDS011;51920;53.952;10.292;2023-07-29T11:00:02;5.57;;;4.50;;
65315;SDS011;51920;53.952;10.292;2023-07-29T11:02:31;5.45;;;4.18;;
65315;SDS011;51920;53.952;10.292;2023-07-29T11:05:07;4.72;;;4.00;;
65315;SDS011;51920;53.952;10.292;2023-07-29T11:07:43;4.70;;;4.00;;
65315;SDS011;51920;53.952;10.292;2023-07-29T11:10:14;5.03;;;3.93;;
65315;SDS011;51920;53.952;10.292;2023-07-29T11:12:43;4.40;;;3.78;;
65315;SDS011;51920;53.952;10.292;2023-07-29T11:15:27;4.40;;;3.75;;
65315;SDS011;51920;53.952;10.292;2023-07-29T11:17:55;3.58;;;3.17;;
65315;SDS011;51920;53.952;10.292;2023-07-29T11:20:24;3.60;;;3.30;;
65315;SDS011;51920;53.952;10.292;2023-07-29T11:22:52;3.77;;;3.10;;
65315;SDS011;51920;53.952;10.292;2023-07-29T11:25:24;3.90;;;3.45;;
65315;SDS011;51920;53.952;10.292;2023-07-29T11:27:52;3.58;;;3.20;;
65315;SDS011;51920;53.952;10.292;2023-07-29T11:30:20;4.15;;;3.28;;
65315;SDS011;51920;53.952;10.292;2023-07-29T11:32:48;4.50;;;3.45;;
65315;SDS011;51920;53.952;10.292;2023-07-29T11:35:16;3.60;;;3.30;;
65315;SDS011;51920;53.952;10.292;2023-07-29T11:37:47;3.50;;;3.20;;
65315;SDS011;51920;53.952;10.292;2023-07-29T11:40:16;3.28;;;2.92;;
65315;SDS011;51920;53.952;10.292;2023-07-29T11:42:44;3.00;;;2.70;;
65315;SDS011;51920;53.952;10.292;2023-07-29T11:45:12;3.08;;;2.75;;
65315;SDS011;51920;53.952;10.292;2023-07-29T11:47:41;6.07;;;2.80;;
65315;SDS011;51920;53.952;10.292;2023-07-29T11:50:09;4.05;;;2.70;;
65315;SDS011;51920;53.952;10.292;2023-07-29T11:52:40;3.10;;;2.70;;
65315;SDS011;51920;53.952;10.292;2023-07-29T11:55:09;4.75;;;2.55;;
65315;SDS011;51920;53.952;10.292;2023-07-29T11:57:36;3.22;;;2.60;;
65315;SDS011;51920;53.952;10.292;2023-07-29T12:00:04;3.93;;;2.67;;
65315;SDS011;51920;53.952;10.292;2023-07-29T12:02:38;2.90;;;2.60;;
65315;SDS011;51920;53.952;10.292;2023-07-29T12:05:06;2.50;;;2.30;;
65315;SDS011;51920;53.952;10.292;2023-07-29T12:07:35;2.47;;;2.00;;
65315;SDS011;51920;53.952;10.292;2023-07-29T12:10:04;2.67;;;2.10;;
65315;SDS011;51920;53.952;10.292;2023-07-29T12:12:32;2.43;;;2.17;;
65315;SDS011;51920;53.952;10.292;2023-07-29T12:14:59;3.30;;;2.30;;
65315;SDS011;51920;53.952;10.292;2023-07-29T12:17:25;2.60;;;2.10;;
65315;SDS011;51920;53.952;10.292;2023-07-29T12:19:54;2.30;;;1.92;;
65315;SDS011;51920;53.952;10.292;2023-07-29T12:22:21;3.47;;;2.03;;
65315;SDS011;51920;53.952;10.292;2023-07-29T12:24:48;2.10;;;1.90;;
65315;SDS011;51920;53.952;10.292;2023-07-29T12:27:18;2.90;;;1.90;;
65315;SDS011;51920;53.952;10.292;2023-07-29T12:29:48;2.15;;;1.80;;
65315;SDS011;51920;53.952;10.292;2023-07-29T12:32:18;2.10;;;1.70;;
65315;SDS011;51920;53.952;10.292;2023-07-29T12:34:45;2.00;;;1.80;;
65315;SDS011;51920;53.952;10.292;2023-07-29T12:37:11;2.20;;;2.00;;
65315;SDS011;51920;53.952;10.292;2023-07-29T12:39:40;2.65;;;2.25;;
65315;SDS011;51920;53.952;10.292;2023-07-29T12:42:10;2.97;;;2.30;;
65315;SDS011;51920;53.952;10.292;2023-07-29T12:44:37;3.33;;;2.10;;
65315;SDS011;51920;53.952;10.292;2023-07-29T12:47:05;2.53;;;2.13;;
65315;SDS011;51920;53.952;10.292;2023-07-29T12:49:32;2.67;;;2.20;;
65315;SDS011;51920;53.952;10.292;2023-07-29T12:51:59;2.90;;;2.40;;
65315;SDS011;51920;53.952;10.292;2023-07-29T12:54:27;2.97;;;2.40;;
65315;SDS011;51920;53.952;10.292;2023-07-29T12:56:53;3.97;;;2.30;;
65315;SDS011;51920;53.952;10.292;2023-07-29T12:59:20;3.05;;;2.70;;
65315;SDS011;51920;53.952;10.292;2023-07-29T13:01:47;4.07;;;2.60;;
65315;SDS011;51920;53.952;10.292;2023-07-29T13:04:14;3.33;;;2.60;;
65315;SDS011;51920;53.952;10.292;2023-07-29T13:06:41;3.05;;;2.42;;
65315;SDS011;51920;53.952;10.292;2023-07-29T13:09:07;2.90;;;2.60;;
65315;SDS011;51920;53.952;10.292;2023-07-29T13:11:34;3.15;;;2.63;;
65315;SDS011;51920;53.952;10.292;2023-07-29T13:14:01;4.10;;;2.93;;
65315;SDS011;51920;53.952;10.292;2023-07-29T13:16:28;4.38;;;2.75;;
65315;SDS011;51920;53.952;10.292;2023-07-29T13:18:56;4.15;;;2.83;;
65315;SDS011;51920;53.952;10.292;2023-07-29T13:21:23;4.57;;;2.60;;
65315;SDS011;51920;53.952;10.292;2023-07-29T13:23:51;3.13;;;2.65;;
65315;SDS011;51920;53.952;10.292;2023-07-29T13:26:18;2.90;;;2.07;;
65315;SDS011;51920;53.952;10.292;2023-07-29T13:28:44;4.22;;;2.40;;
65315;SDS011;51920;53.952;10.292;2023-07-29T13:31:11;2.85;;;1.95;;
65315;SDS011;51920;53.952;10.292;2023-07-29T13:33:39;2.33;;;1.90;;
65315;SDS011;51920;53.952;10.292;2023-07-29T13:36:05;2.63;;;1.65;;
65315;SDS011;51920;53.952;10.292;2023-07-29T13:38:34;2.43;;;1.60;;
65315;SDS011;51920;53.952;10.292;2023-07-29T13:41:02;3.10;;;1.55;;
65315;SDS011;51920;53.952;10.292;2023-07-29T13:43:29;2.03;;;1.60;;
65315;SDS011;51920;53.952;10.292;2023-07-29T13:45:56;1.80;;;1.50;;
65315;SDS011;51920;53.952;10.292;2023-07-29T13:48:23;2.70;;;1.30;;
65315;SDS011;51920;53.952;10.292;2023-07-29T13:50:49;2.23;;;1.40;;
65315;SDS011;51920;53.952;10.292;2023-07-29T13:53:17;1.80;;;1.30;;
65315;SDS011;51920;53.952;10.292;2023-07-29T13:55:44;2.05;;;1.40;;
65315;SDS011;51920;53.952;10.292;2023-07-29T13:58:11;1.75;;;1.48;;
65315;SDS011;51920;53.952;10.292;2023-07-29T14:00:38;2.50;;;1.48;;
65315;SDS011;51920;53.952;10.292;2023-07-29T14:03:05;2.20;;;1.50;;
65315;SDS011;51920;53.952;10.292;2023-07-29T14:05:31;1.77;;;1.50;;
65315;SDS011;51920;53.952;10.292;2023-07-29T14:07:58;1.90;;;1.38;;
65315;SDS011;51920;53.952;10.292;2023-07-29T14:10:25;2.00;;;1.60;;
65315;SDS011;51920;53.952;10.292;2023-07-29T14:12:52;3.17;;;1.70;;
65315;SDS011;51920;53.952;10.292;2023-07-29T14:15:19;2.17;;;1.70;;
65315;SDS011;51920;53.952;10.292;2023-07-29T14:17:46;3.03;;;1.70;;
65315;SDS011;51920;53.952;10.292;2023-07-29T14:20:13;2.22;;;1.60;;
65315;SDS011;51920;53.952;10.292;2023-07-29T14:22:39;2.05;;;1.60;;
65315;SDS011;51920;53.952;10.292;2023-07-29T14:25:06;2.53;;;1.70;;
65315;SDS011;51920;53.952;10.292;2023-07-29T14:27:34;2.07;;;1.50;;
65315;SDS011;51920;53.952;10.292;2023-07-29T14:30:00;1.90;;;1.70;;
65315;SDS011;51920;53.952;10.292;2023-07-29T14:32:28;1.70;;;1.60;;
65315;SDS011;51920;53.952;10.292;2023-07-29T14:34:55;2.28;;;1.70;;
65315;SDS011;51920;53.952;10.292;2023-07-29T14:37:22;2.55;;;1.70;;
65315;SDS011;51920;53.952;10.292;2023-07-29T14:39:49;2.90;;;1.80;;
65315;SDS011;51920;53.952;10.292;2023-07-29T14:42:15;2.08;;;1.70;;
65315;SDS011;51920;53.952;10.292;2023-07-29T14:44:42;2.03;;;1.80;;
65315;SDS011;51920;53.952;10.292;2023-07-29T14:47:09;2.30;;;1.73;;
65315;SDS011;51920;53.952;10.292;2023-07-29T14:49:35;2.45;;;1.73;;